テルアビブ / ベン・グリオン の空港の天気 - METARとTAF

ベン・グリオン国際空港(テルアビブ) ( LLBG / TLV ) - イスラエル ロード / テルアビブ
飛行場実況気象(Metar)
観測時間09/25 04:50 IDT (09/25 01:50 UTC)
風向・風速不定 2m/s
視程10km以上
天気現象
全天の4割程度の雲 雲底高度 520m
気温24℃
湿度78%
気圧1012hPa
METARLLBG 250150Z VRB03KT 9999 SCT017 24/20 Q1012 NOSIG
過去の天気等 Google飛行場航空写真 Wunderground天気予報

過去48時間のMETAR

飛行場予報(TAF)
発表時間: 9/25 02:01 IDT (9/24 23:01 UTC)
予報対象時間: 25日3時 IDT ~ 26日3時 IDT
風向・風速不定 2m/s
視程10km以上
全天の4割程度の雲 雲底高度 760m
25日3時 IDT ~ 25日9時 IDT に一時的に
風向・風速南南東 2m/s
全天の8割程度の雲 雲底高度 610m
25日10時 IDT ~ 25日12時 IDT に徐々に
風向・風速西 5m/s
少しの雲 雲底高度 1070m
25日18時 IDT ~ 25日20時 IDT に徐々に
風向・風速北西 2m/s
全天の4割程度の雲 雲底高度 760m
25日21時 IDT ~ 26日3時 IDT に一時的に
風向・風速不定 2m/s
全天の8割程度の雲 雲底高度 610m
TAF LLBG 242301Z 2500/2524 VRB03KT 9999 SCT025
TEMPO 2500/2506 16004KT BKN020
BECMG 2507/2509 28010KT FEW035
BECMG 2515/2517 32004KT SCT025
TEMPO 2518/2524 VRB03KT BKN020 TX31/2512Z TN23/2504Z